Time;durP1;ratioP1;P1;durP2;ratioP2;P2;SDS_P1;SDS_P2;PMS_P1;PMS_P2;Temp;Humidity;BMP_temperature;BMP_pressure;BME280_temperature;BME280_humidity;BME280_pressure;Samples;Min_cycle;Max_cycle;Signal;HPM_P1;HPM_P2
2021/03/16 00:02:25;;;;;;;492.63;213.53;;;;;;;;;;4957511;28;20241;-88
2021/03/16 00:04:50;;;;;;;501.97;215.47;;;;;;;;;;4976749;28;20182;-88
2021/03/16 00:07:17;;;;;;;511.27;221.40;;;;;;;;;;4978881;28;20170;-88
2021/03/16 00:09:42;;;;;;;505.90;220.33;;;;;;;;;;4978630;28;20269;-88
2021/03/16 00:12:08;;;;;;;508.03;220.03;;;;;;;;;;4978638;28;20217;-88
2021/03/16 00:14:33;;;;;;;506.23;220.50;;;;;;;;;;4961191;28;20241;-88
2021/03/16 00:16:59;;;;;;;503.00;218.17;;;;;;;;;;4978319;28;20601;-88
2021/03/16 00:19:24;;;;;;;517.50;230.13;;;;;;;;;;4978601;28;20178;-88
2021/03/16 00:21:50;;;;;;;511.60;220.10;;;;;;;;;;4961614;28;20193;-88
2021/03/16 00:24:20;;;;;;;502.03;216.30;;;;;;;;;;4960996;28;20625;-89
2021/03/16 00:26:45;;;;;;;497.70;218.83;;;;;;;;;;4978386;28;20228;-88
2021/03/16 00:29:17;;;;;;;492.83;209.37;;;;;;;;;;4960752;28;20615;-89
2021/03/16 00:31:45;;;;;;;502.13;222.03;;;;;;;;;;4961134;28;20619;-88
2021/03/16 00:34:10;;;;;;;490.53;207.73;;;;;;;;;;4978262;28;20171;-88
2021/03/16 00:36:37;;;;;;;472.60;200.73;;;;;;;;;;4978467;28;20637;-89
2021/03/16 00:39:05;;;;;;;460.97;190.70;;;;;;;;;;4961498;28;20194;-90
2021/03/16 00:41:32;;;;;;;445.77;174.13;;;;;;;;;;4960715;28;20186;-90
2021/03/16 00:43:59;;;;;;;429.43;168.43;;;;;;;;;;4977925;28;20175;-89
2021/03/16 00:46:25;;;;;;;428.73;164.63;;;;;;;;;;4978185;28;20206;-90
2021/03/16 00:48:52;;;;;;;434.53;168.23;;;;;;;;;;4960891;28;20296;-89
2021/03/16 00:51:21;;;;;;;417.00;152.73;;;;;;;;;;4978018;28;20202;-90
2021/03/16 00:53:53;;;;;;;404.20;153.77;;;;;;;;;;4977917;28;20245;-89
2021/03/16 00:56:19;;;;;;;418.07;160.83;;;;;;;;;;4978305;28;20158;-89
2021/03/16 00:58:50;;;;;;;434.20;161.97;;;;;;;;;;4978052;28;20190;-87
2021/03/16 01:01:35;;;;;;;409.97;161.87;;;;;;;;;;4959834;28;20174;-90
2021/03/16 01:04:12;;;;;;;417.37;165.27;;;;;;;;;;4958474;28;20179;-90
2021/03/16 01:06:42;;;;;;;444.20;173.27;;;;;;;;;;4974853;28;20281;-90
2021/03/16 01:09:07;;;;;;;442.03;174.27;;;;;;;;;;4977577;28;20293;-90
2021/03/16 01:11:33;;;;;;;439.13;173.87;;;;;;;;;;4959307;28;20633;-89
2021/03/16 01:14:00;;;;;;;442.13;169.60;;;;;;;;;;4960188;28;20213;-90
2021/03/16 01:16:27;;;;;;;434.83;163.50;;;;;;;;;;4976436;28;20174;-90
2021/03/16 01:18:52;;;;;;;425.53;161.43;;;;;;;;;;4959553;28;20186;-89
2021/03/16 01:21:17;;;;;;;402.77;157.77;;;;;;;;;;4960233;28;20626;-90
2021/03/16 01:23:43;;;;;;;398.00;153.70;;;;;;;;;;4959549;28;20189;-90
2021/03/16 01:26:08;;;;;;;401.30;150.73;;;;;;;;;;4977351;28;20210;-89
2021/03/16 01:28:34;;;;;;;397.73;150.93;;;;;;;;;;4959169;28;20657;-87
2021/03/16 01:30:59;;;;;;;413.13;159.17;;;;;;;;;;4977264;28;20692;-87
2021/03/16 01:33:24;;;;;;;389.40;147.40;;;;;;;;;;4977527;28;20167;-89
2021/03/16 01:35:50;;;;;;;387.93;150.33;;;;;;;;;;4959384;28;20182;-89
2021/03/16 01:38:15;;;;;;;391.20;151.60;;;;;;;;;;4959737;28;20175;-89
2021/03/16 01:40:41;;;;;;;396.60;149.13;;;;;;;;;;4977444;28;20197;-90
2021/03/16 01:43:09;;;;;;;387.93;142.17;;;;;;;;;;4976966;28;20185;-90
2021/03/16 01:45:47;;;;;;;368.63;139.87;;;;;;;;;;4960079;28;20183;-89
2021/03/16 01:48:14;;;;;;;377.40;140.07;;;;;;;;;;4959908;28;20186;-89
2021/03/16 01:50:42;;;;;;;352.23;138.27;;;;;;;;;;4960016;28;20563;-89
2021/03/16 01:53:10;;;;;;;357.50;138.33;;;;;;;;;;4977355;28;20178;-89
2021/03/16 01:55:37;;;;;;;348.43;135.97;;;;;;;;;;4977006;28;20517;-89
2021/03/16 01:58:02;;;;;;;340.20;131.17;;;;;;;;;;4976878;28;20226;-88
2021/03/16 02:00:32;;;;;;;354.07;135.10;;;;;;;;;;4976977;28;20175;-88
2021/03/16 02:02:57;;;;;;;363.27;138.03;;;;;;;;;;4959209;28;20577;-88
2021/03/16 02:05:22;;;;;;;353.53;138.40;;;;;;;;;;4976195;28;20167;-87
2021/03/16 02:07:50;;;;;;;371.47;142.53;;;;;;;;;;4976547;28;20209;-88
2021/03/16 02:10:39;;;;;;;398.70;147.00;;;;;;;;;;4976734;28;20253;-88
2021/03/16 02:13:06;;;;;;;386.53;147.53;;;;;;;;;;4975770;28;20175;-86
2021/03/16 02:15:36;;;;;;;384.27;146.17;;;;;;;;;;4976092;28;20295;-87
2021/03/16 02:18:03;;;;;;;366.27;139.83;;;;;;;;;;4976509;28;20167;-88
2021/03/16 02:20:40;;;;;;;371.80;143.87;;;;;;;;;;4976339;28;20562;-88
2021/03/16 02:23:07;;;;;;;373.87;141.07;;;;;;;;;;4976336;28;20159;-87
2021/03/16 02:25:35;;;;;;;369.43;144.57;;;;;;;;;;4976352;28;20185;-87
2021/03/16 02:28:20;;;;;;;391.30;152.03;;;;;;;;;;4975933;28;20653;-90
2021/03/16 02:30:46;;;;;;;371.00;145.30;;;;;;;;;;4962575;28;20657;-89
2021/03/16 02:33:12;;;;;;;383.50;147.27;;;;;;;;;;4975888;28;20258;-90
2021/03/16 02:35:39;;;;;;;377.70;155.27;;;;;;;;;;4958657;28;20301;-89
2021/03/16 02:38:05;;;;;;;375.03;149.97;;;;;;;;;;4976020;28;20179;-88
2021/03/16 02:40:32;;;;;;;386.10;149.63;;;;;;;;;;4976002;28;20211;-88
2021/03/16 02:42:58;;;;;;;382.67;147.13;;;;;;;;;;4975620;28;20589;-88
2021/03/16 02:45:23;;;;;;;385.67;149.23;;;;;;;;;;4976123;28;20257;-89
2021/03/16 02:47:49;;;;;;;372.97;145.80;;;;;;;;;;4976254;28;20181;-88
2021/03/16 02:50:15;;;;;;;369.87;142.83;;;;;;;;;;4976442;28;20213;-89
2021/03/16 02:52:41;;;;;;;383.77;148.07;;;;;;;;;;4976023;28;20170;-88
2021/03/16 02:55:06;;;;;;;840.27;346.20;;;;;;;;;;4958576;28;20593;-88
2021/03/16 02:57:32;;;;;;;673.00;276.17;;;;;;;;;;4976131;28;20179;-88
2021/03/16 03:00:00;;;;;;;511.93;196.73;;;;;;;;;;4975992;28;20181;-88
2021/03/16 03:02:26;;;;;;;345.83;140.63;;;;;;;;;;4975653;28;20178;-89
2021/03/16 03:04:52;;;;;;;362.70;143.50;;;;;;;;;;4959000;28;20606;-89
2021/03/16 03:07:18;;;;;;;370.27;143.77;;;;;;;;;;4958110;28;20182;-88
2021/03/16 03:09:44;;;;;;;366.07;145.57;;;;;;;;;;4975072;28;20234;-89
2021/03/16 03:12:09;;;;;;;377.13;145.33;;;;;;;;;;4958145;28;20261;-89
2021/03/16 03:14:36;;;;;;;360.43;142.97;;;;;;;;;;4975414;28;20261;-88
2021/03/16 03:17:05;;;;;;;354.67;143.13;;;;;;;;;;4976052;28;20201;-87
2021/03/16 03:19:30;;;;;;;365.07;144.17;;;;;;;;;;4975265;28;20174;-87
2021/03/16 03:21:58;;;;;;;374.07;150.83;;;;;;;;;;4975254;28;20229;-87
2021/03/16 03:24:27;;;;;;;392.13;155.67;;;;;;;;;;4975516;28;20186;-87
2021/03/16 03:26:58;;;;;;;372.30;149.00;;;;;;;;;;4975214;28;20295;-87
2021/03/16 03:29:24;;;;;;;375.33;151.60;;;;;;;;;;4974822;28;20214;-87
2021/03/16 03:31:50;;;;;;;363.80;148.43;;;;;;;;;;4975100;28;20174;-88
2021/03/16 03:34:17;;;;;;;381.20;150.80;;;;;;;;;;4975052;28;20581;-88
2021/03/16 03:36:43;;;;;;;368.43;147.87;;;;;;;;;;4975489;28;20208;-88
2021/03/16 03:39:09;;;;;;;355.83;147.63;;;;;;;;;;4974448;28;20206;-88
2021/03/16 03:41:36;;;;;;;365.13;145.93;;;;;;;;;;4975165;28;20181;-87
2021/03/16 03:44:01;;;;;;;352.33;140.07;;;;;;;;;;4975133;28;20564;-88
2021/03/16 03:46:29;;;;;;;341.03;139.47;;;;;;;;;;4975196;28;20182;-89
2021/03/16 03:48:54;;;;;;;338.50;137.27;;;;;;;;;;4975385;28;20281;-88
2021/03/16 03:51:20;;;;;;;313.80;131.47;;;;;;;;;;4974785;28;20309;-88
2021/03/16 03:53:46;;;;;;;319.83;135.07;;;;;;;;;;4975280;28;20514;-88
2021/03/16 03:56:12;;;;;;;309.77;131.00;;;;;;;;;;4974673;28;20182;-88
2021/03/16 03:58:38;;;;;;;322.13;134.63;;;;;;;;;;4975378;28;20496;-88
2021/03/16 04:01:04;;;;;;;339.03;139.63;;;;;;;;;;4974877;28;20561;-88
2021/03/16 04:03:30;;;;;;;327.70;133.87;;;;;;;;;;4974575;28;20213;-88
2021/03/16 04:05:55;;;;;;;326.10;136.07;;;;;;;;;;4957494;28;20528;-88
2021/03/16 04:08:21;;;;;;;328.43;130.83;;;;;;;;;;4974975;28;20266;-87
2021/03/16 04:10:47;;;;;;;310.90;129.83;;;;;;;;;;4974558;28;20182;-87
2021/03/16 04:13:12;;;;;;;311.60;130.87;;;;;;;;;;4975253;28;20174;-87
2021/03/16 04:15:37;;;;;;;301.07;126.87;;;;;;;;;;4974903;28;20633;-87
2021/03/16 04:18:03;;;;;;;323.10;129.80;;;;;;;;;;4957840;28;20237;-88
2021/03/16 04:20:28;;;;;;;311.23;126.47;;;;;;;;;;4974305;28;20206;-88
2021/03/16 04:22:54;;;;;;;310.20;123.40;;;;;;;;;;4974684;28;20228;-88
2021/03/16 04:25:19;;;;;;;311.73;125.43;;;;;;;;;;4974240;28;20618;-89
2021/03/16 04:27:44;;;;;;;312.20;126.20;;;;;;;;;;4974800;28;20258;-89
2021/03/16 04:30:10;;;;;;;316.30;125.77;;;;;;;;;;4974564;28;20309;-89
2021/03/16 04:32:36;;;;;;;316.20;125.90;;;;;;;;;;4974546;28;20182;-89
2021/03/16 04:35:01;;;;;;;305.37;124.60;;;;;;;;;;4957422;28;20206;-89
2021/03/16 04:37:26;;;;;;;301.73;121.83;;;;;;;;;;4957352;28;20179;-88
2021/03/16 04:39:52;;;;;;;308.27;126.00;;;;;;;;;;4974202;28;20182;-89
2021/03/16 04:42:17;;;;;;;298.67;124.40;;;;;;;;;;4974753;28;20225;-88
2021/03/16 04:44:42;;;;;;;305.77;124.87;;;;;;;;;;4974802;28;20299;-88
2021/03/16 04:47:07;;;;;;;322.37;129.90;;;;;;;;;;4974748;28;20633;-88
2021/03/16 04:49:33;;;;;;;338.93;136.27;;;;;;;;;;4974323;28;20202;-88
2021/03/16 04:51:58;;;;;;;318.97;126.47;;;;;;;;;;4976326;28;20622;-88
2021/03/16 04:54:23;;;;;;;332.27;132.00;;;;;;;;;;4977781;28;20210;-88
2021/03/16 04:56:49;;;;;;;322.70;130.30;;;;;;;;;;4978703;28;20175;-88
2021/03/16 04:59:14;;;;;;;324.07;128.60;;;;;;;;;;4978148;28;20182;-88
2021/03/16 05:01:40;;;;;;;321.33;126.43;;;;;;;;;;4977963;28;20614;-88
2021/03/16 05:04:05;;;;;;;313.00;126.90;;;;;;;;;;4977541;28;20174;-89
2021/03/16 05:06:30;;;;;;;317.80;127.50;;;;;;;;;;4977791;28;20174;-89
2021/03/16 05:08:57;;;;;;;313.70;129.17;;;;;;;;;;4959940;28;20238;-88
2021/03/16 05:11:22;;;;;;;333.00;141.77;;;;;;;;;;4977430;28;20629;-88
2021/03/16 05:13:47;;;;;;;314.60;133.63;;;;;;;;;;4977460;28;20175;-88
2021/03/16 05:16:13;;;;;;;290.03;128.30;;;;;;;;;;4960241;28;20274;-88
2021/03/16 05:18:38;;;;;;;333.73;134.13;;;;;;;;;;4977826;28;20178;-88
2021/03/16 05:21:03;;;;;;;447.03;161.40;;;;;;;;;;4977789;28;20237;-88
2021/03/16 05:23:29;;;;;;;470.03;177.83;;;;;;;;;;4960988;28;20181;-88
2021/03/16 05:25:54;;;;;;;340.60;133.60;;;;;;;;;;4977575;28;20175;-89
2021/03/16 05:28:19;;;;;;;255.93;108.47;;;;;;;;;;4977555;28;20626;-88
2021/03/16 05:30:45;;;;;;;250.90;102.83;;;;;;;;;;4977647;28;20211;-87
2021/03/16 05:33:10;;;;;;;284.53;114.90;;;;;;;;;;4977727;28;20177;-87
2021/03/16 05:35:35;;;;;;;285.23;115.30;;;;;;;;;;4977054;28;20237;-87
2021/03/16 05:38:01;;;;;;;325.30;124.80;;;;;;;;;;4977315;28;20170;-89
2021/03/16 05:40:29;;;;;;;316.90;127.23;;;;;;;;;;4977181;28;20538;-89
2021/03/16 05:42:55;;;;;;;342.93;137.93;;;;;;;;;;4977261;28;20186;-89
2021/03/16 05:45:21;;;;;;;402.93;166.07;;;;;;;;;;4977116;28;20221;-89
2021/03/16 05:47:47;;;;;;;434.43;192.50;;;;;;;;;;4977045;28;20179;-89
2021/03/16 05:50:13;;;;;;;508.23;232.27;;;;;;;;;;4976597;28;20225;-89
2021/03/16 05:52:38;;;;;;;518.63;234.77;;;;;;;;;;4977250;28;20199;-89
2021/03/16 05:55:04;;;;;;;495.53;223.63;;;;;;;;;;4959455;28;20262;-88
2021/03/16 05:57:29;;;;;;;482.07;217.33;;;;;;;;;;4976692;28;20174;-88
2021/03/16 05:59:54;;;;;;;470.50;217.60;;;;;;;;;;4976949;28;20189;-87
2021/03/16 06:02:20;;;;;;;462.27;213.97;;;;;;;;;;4977071;28;20632;-88
2021/03/16 06:04:45;;;;;;;450.03;221.27;;;;;;;;;;4976978;28;20175;-89
2021/03/16 06:07:11;;;;;;;444.57;217.67;;;;;;;;;;4976908;28;20259;-88
2021/03/16 06:09:37;;;;;;;487.50;257.93;;;;;;;;;;4976220;28;20322;-89
2021/03/16 06:12:03;;;;;;;544.07;332.00;;;;;;;;;;4959494;28;20182;-88
2021/03/16 06:14:29;;;;;;;464.60;239.10;;;;;;;;;;4976975;28;20205;-88
2021/03/16 06:16:55;;;;;;;430.63;219.57;;;;;;;;;;4976419;28;20186;-88
2021/03/16 06:19:31;;;;;;;403.27;205.17;;;;;;;;;;4976443;28;20174;-88
2021/03/16 06:21:57;;;;;;;411.93;208.23;;;;;;;;;;4977179;28;20170;-89
2021/03/16 06:24:22;;;;;;;403.77;206.67;;;;;;;;;;4976768;28;20186;-89
2021/03/16 06:26:48;;;;;;;363.37;188.97;;;;;;;;;;4976511;28;20527;-88
2021/03/16 06:29:13;;;;;;;346.10;180.43;;;;;;;;;;4976122;28;20217;-88
2021/03/16 06:31:38;;;;;;;287.00;149.00;;;;;;;;;;4976146;28;20229;-89
2021/03/16 06:34:04;;;;;;;259.00;139.30;;;;;;;;;;4976148;28;20595;-89
2021/03/16 06:36:30;;;;;;;162.73;101.90;;;;;;;;;;4976866;28;20175;-88
2021/03/16 06:38:56;;;;;;;172.07;101.70;;;;;;;;;;4976004;28;20257;-89
2021/03/16 06:41:22;;;;;;;130.30;87.03;;;;;;;;;;4976250;28;20261;-88
2021/03/16 06:43:58;;;;;;;99.23;70.73;;;;;;;;;;4958852;28;20233;-88
2021/03/16 06:46:33;;;;;;;97.97;67.43;;;;;;;;;;4976109;28;20213;-89
2021/03/16 06:48:59;;;;;;;110.57;78.73;;;;;;;;;;4976287;28;20292;-89
2021/03/16 06:51:27;;;;;;;94.73;67.43;;;;;;;;;;4976388;28;20216;-88
2021/03/16 06:53:52;;;;;;;94.83;69.13;;;;;;;;;;4976013;28;20261;-89
2021/03/16 06:56:30;;;;;;;90.07;70.27;;;;;;;;;;4958235;28;20269;-87
2021/03/16 06:58:55;;;;;;;80.83;60.60;;;;;;;;;;4957850;28;20186;-86
2021/03/16 07:01:21;;;;;;;78.83;60.47;;;;;;;;;;4974458;28;20670;-87
2021/03/16 07:03:47;;;;;;;62.70;52.37;;;;;;;;;;4975087;28;20261;-87
2021/03/16 07:06:13;;;;;;;59.97;48.07;;;;;;;;;;4975724;28;20589;-86
2021/03/16 07:08:40;;;;;;;57.67;46.67;;;;;;;;;;4975600;28;20617;-86
2021/03/16 07:11:06;;;;;;;59.53;49.17;;;;;;;;;;4975938;28;20197;-87
2021/03/16 07:13:33;;;;;;;55.57;45.80;;;;;;;;;;4974934;28;20190;-86
2021/03/16 07:15:59;;;;;;;51.00;43.53;;;;;;;;;;4975759;28;20174;-85
2021/03/16 07:18:26;;;;;;;49.43;40.73;;;;;;;;;;4975529;28;20282;-85
2021/03/16 07:20:55;;;;;;;44.93;39.03;;;;;;;;;;4975191;28;20179;-86
2021/03/16 07:23:22;;;;;;;52.55;43.17;;;;;;;;;;4975108;28;20167;-86
2021/03/16 07:25:48;;;;;;;50.67;43.00;;;;;;;;;;4975656;28;20224;-85
2021/03/16 07:28:13;;;;;;;46.80;38.97;;;;;;;;;;4974991;28;20262;-85
2021/03/16 07:30:39;;;;;;;43.83;37.67;;;;;;;;;;4973839;28;20234;-86
2021/03/16 07:33:04;;;;;;;46.97;38.53;;;;;;;;;;4974570;28;20217;-86
2021/03/16 07:35:33;;;;;;;51.72;44.70;;;;;;;;;;4975199;28;20257;-86
2021/03/16 07:38:00;;;;;;;50.47;41.47;;;;;;;;;;4974876;28;20510;-86
2021/03/16 07:40:28;;;;;;;42.80;36.87;;;;;;;;;;4975080;28;20185;-85
2021/03/16 07:42:54;;;;;;;47.55;38.15;;;;;;;;;;4975156;28;20174;-86
2021/03/16 07:45:23;;;;;;;42.47;35.83;;;;;;;;;;4974866;28;20170;-86
2021/03/16 07:47:48;;;;;;;39.67;35.47;;;;;;;;;;4975006;28;20872;-87
2021/03/16 07:50:14;;;;;;;44.67;35.63;;;;;;;;;;4957696;28;20205;-86
2021/03/16 07:52:45;;;;;;;42.83;33.90;;;;;;;;;;4975125;28;20208;-86
2021/03/16 07:55:23;;;;;;;36.50;30.13;;;;;;;;;;4975128;28;20181;-86
2021/03/16 07:57:48;;;;;;;36.00;29.80;;;;;;;;;;4974025;28;20618;-85
2021/03/16 08:00:14;;;;;;;32.67;29.03;;;;;;;;;;4974306;28;20190;-86
2021/03/16 08:02:39;;;;;;;33.63;28.27;;;;;;;;;;4974750;28;20186;-85
2021/03/16 08:05:14;;;;;;;38.27;31.50;;;;;;;;;;4974708;28;20629;-85
2021/03/16 08:07:40;;;;;;;41.20;33.03;;;;;;;;;;4957192;28;20174;-86
2021/03/16 08:10:05;;;;;;;48.47;37.67;;;;;;;;;;4957071;28;20210;-85
2021/03/16 08:12:31;;;;;;;48.77;37.97;;;;;;;;;;4974608;28;20202;-86
2021/03/16 08:15:08;;;;;;;50.83;39.70;;;;;;;;;;4974844;28;20648;-85
2021/03/16 08:17:35;;;;;;;57.03;43.50;;;;;;;;;;4974471;28;20246;-85
2021/03/16 08:20:02;;;;;;;55.93;42.73;;;;;;;;;;4975065;28;20202;-84
2021/03/16 08:22:28;;;;;;;54.83;43.43;;;;;;;;;;4974492;28;20177;-85
2021/03/16 08:25:01;;;;;;;60.00;45.63;;;;;;;;;;4973847;28;20174;-85
2021/03/16 08:27:28;;;;;;;62.13;44.53;;;;;;;;;;4977601;28;20182;-84
2021/03/16 08:29:53;;;;;;;64.90;46.70;;;;;;;;;;4978235;28;20198;-85
2021/03/16 08:32:19;;;;;;;61.57;45.63;;;;;;;;;;4978356;28;20170;-84
2021/03/16 08:34:45;;;;;;;60.67;42.80;;;;;;;;;;4977648;28;20198;-84
2021/03/16 08:37:27;;;;;;;48.20;37.63;;;;;;;;;;4977862;28;20186;-84
2021/03/16 08:39:55;;;;;;;50.07;38.53;;;;;;;;;;4961081;28;20209;-85
2021/03/16 08:42:22;;;;;;;45.87;35.83;;;;;;;;;;4978373;28;20254;-86
2021/03/16 08:44:47;;;;;;;46.57;35.67;;;;;;;;;;4961607;28;20187;-85
2021/03/16 08:47:14;;;;;;;52.73;40.47;;;;;;;;;;4977525;28;20736;-85
2021/03/16 08:49:40;;;;;;;53.17;39.30;;;;;;;;;;4960727;28;20554;-84
2021/03/16 08:52:14;;;;;;;50.50;33.90;;;;;;;;;;4978623;28;20621;-84
2021/03/16 08:54:40;;;;;;;42.73;34.63;;;;;;;;;;4978293;28;20162;-84
2021/03/16 08:57:05;;;;;;;46.10;35.30;;;;;;;;;;4978254;28;20181;-84
2021/03/16 08:59:30;;;;;;;43.70;31.53;;;;;;;;;;4977871;28;20170;-84
2021/03/16 09:01:56;;;;;;;35.77;26.23;;;;;;;;;;4978432;28;20270;-84
2021/03/16 09:04:21;;;;;;;34.13;26.87;;;;;;;;;;4977831;28;20182;-83
2021/03/16 09:06:50;;;;;;;39.33;29.70;;;;;;;;;;4974353;28;20186;-84
2021/03/16 09:09:22;;;;;;;36.47;27.23;;;;;;;;;;4965584;28;20682;-83
2021/03/16 09:11:47;;;;;;;39.10;29.23;;;;;;;;;;4967900;28;20299;-83
2021/03/16 09:14:17;;;;;;;41.17;30.93;;;;;;;;;;4952053;28;20198;-83
2021/03/16 09:16:47;;;;;;;35.50;27.17;;;;;;;;;;4966855;28;20206;-83
2021/03/16 09:19:14;;;;;;;34.63;28.03;;;;;;;;;;4971511;28;20225;-84
2021/03/16 09:21:52;;;;;;;31.87;25.87;;;;;;;;;;4975836;28;20175;-84
2021/03/16 09:24:20;;;;;;;34.70;25.90;;;;;;;;;;4970103;28;20183;-84
2021/03/16 09:26:53;;;;;;;30.33;23.53;;;;;;;;;;4968086;28;20175;-84
2021/03/16 09:29:19;;;;;;;27.93;22.03;;;;;;;;;;4967743;28;20264;-83
2021/03/16 09:31:44;;;;;;;34.40;25.77;;;;;;;;;;4963443;28;20171;-83
2021/03/16 09:34:11;;;;;;;31.20;24.03;;;;;;;;;;4968103;28;20530;-83
2021/03/16 09:36:36;;;;;;;30.57;24.10;;;;;;;;;;4959048;28;20182;-84
2021/03/16 09:39:02;;;;;;;29.43;22.23;;;;;;;;;;4975694;28;20175;-83
2021/03/16 09:41:27;;;;;;;28.37;20.70;;;;;;;;;;4959994;28;20171;-84
2021/03/16 09:43:52;;;;;;;28.40;22.70;;;;;;;;;;4977274;28;20175;-83
2021/03/16 09:46:18;;;;;;;25.83;19.60;;;;;;;;;;4976911;28;20163;-83
2021/03/16 09:48:48;;;;;;;25.20;20.17;;;;;;;;;;4976838;28;20506;-83
2021/03/16 09:51:14;;;;;;;26.60;20.70;;;;;;;;;;4974199;28;20171;-83
2021/03/16 09:53:46;;;;;;;21.13;17.20;;;;;;;;;;4975410;28;20182;-83
2021/03/16 09:56:15;;;;;;;21.23;16.00;;;;;;;;;;4958260;28;20236;-83
2021/03/16 09:58:46;;;;;;;23.57;18.10;;;;;;;;;;4957042;28;20189;-83
2021/03/16 10:01:11;;;;;;;20.27;15.40;;;;;;;;;;4958350;28;20266;-83
2021/03/16 10:03:36;;;;;;;17.60;14.10;;;;;;;;;;4974603;28;20334;-83
2021/03/16 10:06:06;;;;;;;16.50;13.73;;;;;;;;;;4975786;28;20692;-83
2021/03/16 10:08:31;;;;;;;19.00;14.23;;;;;;;;;;4973724;28;20237;-85
2021/03/16 10:10:56;;;;;;;18.60;15.10;;;;;;;;;;4975045;28;20206;-83
2021/03/16 10:13:48;;;;;;;15.93;13.37;;;;;;;;;;4961533;28;20182;-83
2021/03/16 10:16:14;;;;;;;16.77;13.00;;;;;;;;;;4936537;29;20654;-83
2021/03/16 10:18:50;;;;;;;16.47;13.07;;;;;;;;;;4956096;29;20203;-83
2021/03/16 10:21:16;;;;;;;18.00;13.07;;;;;;;;;;4955995;29;20222;-83
2021/03/16 10:23:41;;;;;;;17.50;15.27;;;;;;;;;;4946125;28;20580;-83
2021/03/16 10:26:07;;;;;;;17.97;15.97;;;;;;;;;;4974867;28;20294;-83
2021/03/16 10:28:34;;;;;;;13.97;12.20;;;;;;;;;;4974334;28;20189;-83
2021/03/16 10:31:28;;;;;;;16.13;13.40;;;;;;;;;;4967725;28;20197;-83
2021/03/16 10:33:57;;;;;;;18.10;12.80;;;;;;;;;;4943246;28;20187;-83
2021/03/16 10:36:23;;;;;;;13.07;11.13;;;;;;;;;;4962995;28;20265;-83
2021/03/16 10:38:49;;;;;;;16.20;12.80;;;;;;;;;;4942862;28;20322;-83
2021/03/16 10:41:21;;;;;;;13.83;11.90;;;;;;;;;;4971446;28;20182;-83
2021/03/16 10:43:47;;;;;;;13.27;11.13;;;;;;;;;;4956899;28;20649;-83
2021/03/16 10:46:13;;;;;;;14.40;12.87;;;;;;;;;;4972343;28;20175;-83
2021/03/16 10:48:38;;;;;;;15.30;12.40;;;;;;;;;;4954888;28;20175;-83
2021/03/16 10:51:04;;;;;;;18.03;13.33;;;;;;;;;;4965608;28;20586;-83
2021/03/16 10:53:29;;;;;;;16.63;14.20;;;;;;;;;;4956793;28;20531;-83
2021/03/16 10:55:57;;;;;;;17.07;13.50;;;;;;;;;;4983535;28;20193;-83
2021/03/16 10:58:23;;;;;;;16.57;12.93;;;;;;;;;;4974944;28;20174;-83
2021/03/16 11:00:48;;;;;;;17.53;12.67;;;;;;;;;;4974849;28;20652;-84
2021/03/16 11:03:14;;;;;;;12.07;10.50;;;;;;;;;;4951745;28;20262;-85
2021/03/16 11:05:40;;;;;;;14.53;11.60;;;;;;;;;;4964818;28;20230;-84
2021/03/16 11:08:05;;;;;;;13.00;11.60;;;;;;;;;;4975268;28;20226;-84
2021/03/16 11:10:31;;;;;;;15.17;13.23;;;;;;;;;;4975426;28;20331;-82
2021/03/16 11:12:56;;;;;;;16.30;13.67;;;;;;;;;;4975222;28;20174;-83
2021/03/16 11:15:22;;;;;;;15.67;12.57;;;;;;;;;;4975849;28;20186;-83
2021/03/16 11:17:47;;;;;;;22.67;16.27;;;;;;;;;;4975587;28;20182;-83
2021/03/16 11:20:13;;;;;;;19.33;15.40;;;;;;;;;;4975350;28;20320;-84
2021/03/16 11:22:38;;;;;;;27.40;18.53;;;;;;;;;;4975540;28;20181;-84
2021/03/16 11:25:04;;;;;;;21.37;16.83;;;;;;;;;;4958587;28;20178;-83
2021/03/16 11:27:29;;;;;;;16.70;14.90;;;;;;;;;;4975687;28;20175;-83
2021/03/16 11:29:54;;;;;;;18.77;14.00;;;;;;;;;;4975528;28;20202;-83
2021/03/16 11:32:20;;;;;;;13.00;10.70;;;;;;;;;;4975880;28;20178;-83
2021/03/16 11:34:45;;;;;;;11.97;9.40;;;;;;;;;;4975858;28;20183;-82
2021/03/16 11:37:13;;;;;;;10.70;8.83;;;;;;;;;;4958142;28;20171;-84
2021/03/16 11:39:38;;;;;;;16.63;13.30;;;;;;;;;;4974042;28;20621;-83
2021/03/16 11:42:05;;;;;;;26.43;18.73;;;;;;;;;;4975257;28;20174;-83
2021/03/16 11:44:30;;;;;;;44.53;27.83;;;;;;;;;;4974973;28;20215;-83
2021/03/16 11:46:55;;;;;;;17.27;13.20;;;;;;;;;;4974967;28;20663;-83
2021/03/16 11:49:21;;;;;;;15.10;12.83;;;;;;;;;;4975677;28;20206;-83
2021/03/16 11:51:46;;;;;;;14.03;10.03;;;;;;;;;;4958232;28;20582;-82
2021/03/16 11:54:11;;;;;;;10.57;8.50;;;;;;;;;;4974106;28;20175;-82
2021/03/16 11:56:36;;;;;;;10.03;8.43;;;;;;;;;;4973183;28;20210;-83
2021/03/16 11:59:02;;;;;;;10.13;7.40;;;;;;;;;;4973562;28;20190;-83
2021/03/16 12:01:27;;;;;;;9.17;7.90;;;;;;;;;;4974934;28;20550;-83
2021/03/16 12:03:52;;;;;;;12.13;9.20;;;;;;;;;;4975320;28;20522;-83
2021/03/16 12:06:18;;;;;;;15.90;10.90;;;;;;;;;;4974848;28;20541;-83
2021/03/16 12:08:43;;;;;;;13.43;10.30;;;;;;;;;;4973782;28;20685;-83
2021/03/16 12:11:08;;;;;;;10.97;9.20;;;;;;;;;;4974348;28;20522;-83
2021/03/16 12:13:34;;;;;;;12.27;9.90;;;;;;;;;;4974638;28;20166;-82
2021/03/16 12:15:59;;;;;;;14.97;10.30;;;;;;;;;;4975067;28;20174;-82
2021/03/16 12:18:25;;;;;;;13.83;11.43;;;;;;;;;;4976064;28;20197;-83
2021/03/16 12:20:50;;;;;;;15.93;11.47;;;;;;;;;;4973650;28;20181;-83
2021/03/16 12:23:16;;;;;;;14.90;11.40;;;;;;;;;;4971802;28;20257;-83
2021/03/16 12:25:42;;;;;;;11.83;8.90;;;;;;;;;;4975026;28;20257;-84
2021/03/16 12:28:07;;;;;;;8.37;7.20;;;;;;;;;;4974696;28;20171;-83
2021/03/16 12:30:33;;;;;;;7.50;6.53;;;;;;;;;;4974676;28;20664;-83
2021/03/16 12:32:58;;;;;;;10.67;7.83;;;;;;;;;;4974711;28;20233;-83
2021/03/16 12:35:23;;;;;;;9.93;8.93;;;;;;;;;;4974627;28;20186;-83
2021/03/16 12:37:49;;;;;;;10.23;8.50;;;;;;;;;;4974406;28;20270;-82
2021/03/16 12:40:14;;;;;;;11.63;9.63;;;;;;;;;;4974665;28;20178;-83
2021/03/16 12:42:40;;;;;;;16.50;12.13;;;;;;;;;;4974643;28;20185;-83
2021/03/16 12:48:08;;;;;;;15.97;12.73;;;;;;;;;;4974423;28;20209;-83
2021/03/16 12:50:33;;;;;;;15.93;12.70;;;;;;;;;;4974165;28;20198;-83
2021/03/16 12:52:58;;;;;;;18.37;12.97;;;;;;;;;;4974375;28;20184;-83
2021/03/16 12:55:24;;;;;;;14.53;11.93;;;;;;;;;;4974390;28;20166;-83
2021/03/16 12:57:49;;;;;;;13.33;10.87;;;;;;;;;;4974537;28;20624;-83
2021/03/16 13:00:15;;;;;;;15.00;12.30;;;;;;;;;;4972774;28;20685;-83
2021/03/16 13:02:40;;;;;;;20.67;15.77;;;;;;;;;;4974351;28;20171;-84
2021/03/16 13:05:05;;;;;;;18.60;15.17;;;;;;;;;;4974047;28;20178;-82
2021/03/16 13:07:31;;;;;;;17.57;15.60;;;;;;;;;;4974400;28;20637;-83
2021/03/16 13:09:56;;;;;;;21.17;16.27;;;;;;;;;;4973541;28;20234;-84
2021/03/16 13:12:21;;;;;;;20.50;16.20;;;;;;;;;;4975182;28;20179;-83
2021/03/16 13:14:47;;;;;;;20.13;15.47;;;;;;;;;;4960152;28;20641;-83
2021/03/16 13:17:12;;;;;;;13.27;11.73;;;;;;;;;;4977214;28;20178;-83
2021/03/16 13:19:38;;;;;;;14.73;11.77;;;;;;;;;;4976374;28;20602;-83
2021/03/16 13:22:05;;;;;;;15.43;11.73;;;;;;;;;;4958710;28;20593;-83
2021/03/16 13:24:31;;;;;;;16.87;13.77;;;;;;;;;;4977102;28;20633;-83
2021/03/16 13:26:56;;;;;;;14.53;11.13;;;;;;;;;;4977316;28;20170;-83
2021/03/16 13:29:22;;;;;;;15.93;11.97;;;;;;;;;;4976774;28;20213;-83
2021/03/16 13:31:47;;;;;;;16.70;12.13;;;;;;;;;;4975626;28;20257;-83
2021/03/16 13:34:13;;;;;;;15.30;12.67;;;;;;;;;;4975686;28;20575;-83
2021/03/16 13:36:38;;;;;;;18.20;13.93;;;;;;;;;;4975754;28;20174;-83
2021/03/16 13:39:03;;;;;;;15.30;11.20;;;;;;;;;;4975783;28;20171;-82
2021/03/16 13:41:29;;;;;;;17.03;13.47;;;;;;;;;;4975593;28;20216;-84
2021/03/16 13:43:54;;;;;;;17.50;12.50;;;;;;;;;;4975752;28;20170;-83
2021/03/16 13:46:19;;;;;;;13.47;11.40;;;;;;;;;;4975865;28;20181;-83
2021/03/16 13:48:45;;;;;;;11.47;9.93;;;;;;;;;;4975740;28;20214;-85
2021/03/16 13:51:10;;;;;;;11.83;8.33;;;;;;;;;;4975346;28;20167;-82
2021/03/16 13:53:35;;;;;;;11.67;8.87;;;;;;;;;;4975481;28;20630;-82
2021/03/16 13:56:01;;;;;;;14.63;11.73;;;;;;;;;;4975372;28;20592;-82
2021/03/16 13:58:27;;;;;;;17.30;10.93;;;;;;;;;;4975579;28;20167;-83
2021/03/16 14:00:53;;;;;;;20.87;14.57;;;;;;;;;;4975782;28;20183;-82
2021/03/16 14:03:19;;;;;;;13.73;10.70;;;;;;;;;;4972151;28;20818;-82
2021/03/16 14:05:44;;;;;;;12.07;9.70;;;;;;;;;;4965174;28;20210;-82
2021/03/16 14:08:09;;;;;;;13.00;10.33;;;;;;;;;;4974858;28;20258;-82